Time;durP1;ratioP1;P1;durP2;ratioP2;P2;SDS_P1;SDS_P2;PMS_P1;PMS_P2;Temp;Humidity;BMP_temperature;BMP_pressure;BME280_temperature;BME280_humidity;BME280_pressure;Samples;Min_cycle;Max_cycle;Signal;HPM_P1;HPM_P2
2022/11/07 00:02:07;;;;;;;2.10;1.60;;;12.50;99.90;;;;;;4980151;28;20451;-73
2022/11/07 00:04:36;;;;;;;1.67;1.30;;;12.60;99.90;;;;;;4963950;28;20508;-73
2022/11/07 00:07:06;;;;;;;1.60;1.30;;;12.50;99.90;;;;;;4980254;28;20448;-73
2022/11/07 00:09:34;;;;;;;2.70;1.57;;;12.50;99.90;;;;;;4979668;28;20434;-73
2022/11/07 00:12:00;;;;;;;3.40;1.63;;;12.50;99.90;;;;;;4997318;28;20491;-73
2022/11/07 00:14:26;;;;;;;1.87;1.60;;;12.50;99.90;;;;;;4997115;28;20445;-73
2022/11/07 00:16:54;;;;;;;2.17;1.70;;;12.50;99.90;;;;;;4997130;28;20447;-73
2022/11/07 00:19:21;;;;;;;2.00;1.60;;;12.60;99.90;;;;;;4947772;28;20814;-73
2022/11/07 00:21:50;;;;;;;2.33;1.60;;;12.50;99.90;;;;;;4996931;28;20462;-73
2022/11/07 00:24:18;;;;;;;2.77;1.60;;;12.50;99.90;;;;;;4978599;28;20809;-73
2022/11/07 00:26:45;;;;;;;3.53;1.43;;;12.50;99.90;;;;;;4979722;28;20432;-73
2022/11/07 00:29:15;;;;;;;2.30;1.47;;;12.50;99.90;;;;;;4963383;28;20449;-73
2022/11/07 00:31:46;;;;;;;2.87;1.63;;;12.50;99.90;;;;;;4996947;28;20455;-73
2022/11/07 00:34:13;;;;;;;4.60;2.10;;;12.50;99.90;;;;;;4979414;28;20921;-73
2022/11/07 00:36:41;;;;;;;4.03;1.83;;;12.50;99.90;;;;;;4996665;28;20785;-73
2022/11/07 00:39:10;;;;;;;2.73;1.47;;;12.50;99.90;;;;;;4996716;28;20445;-73
2022/11/07 00:41:47;;;;;;;5.03;1.70;;;12.60;99.90;;;;;;4962890;28;20543;-73
2022/11/07 00:44:15;;;;;;;2.77;1.47;;;12.50;99.90;;;;;;4979650;28;20408;-73
2022/11/07 00:46:41;;;;;;;2.03;1.83;;;12.60;99.90;;;;;;4996465;28;20519;-73
2022/11/07 00:49:07;;;;;;;2.17;1.90;;;12.50;99.90;;;;;;4996409;28;20433;-73
2022/11/07 00:51:35;;;;;;;1.90;1.60;;;12.60;99.90;;;;;;4963437;28;20470;-73
2022/11/07 00:54:02;;;;;;;1.63;1.50;;;12.60;99.90;;;;;;4978490;28;20405;-73
2022/11/07 00:56:31;;;;;;;4.67;1.57;;;12.60;99.90;;;;;;4963244;28;20899;-73
2022/11/07 00:58:58;;;;;;;1.47;1.13;;;12.60;99.90;;;;;;4978787;28;20434;-73
2022/11/07 01:01:27;;;;;;;2.50;1.70;;;12.60;99.90;;;;;;4962791;28;20454;-73
2022/11/07 01:06:45;;;;;;;1.50;1.40;;;12.60;99.90;;;;;;4978971;28;20438;-73
2022/11/07 01:09:18;;;;;;;1.90;1.30;;;12.60;99.90;;;;;;4978771;28;20499;-73
2022/11/07 01:11:50;;;;;;;2.10;1.57;;;12.60;99.90;;;;;;4947589;28;20815;-73
2022/11/07 01:14:20;;;;;;;1.90;1.40;;;12.60;99.90;;;;;;4978652;28;20394;-73
2022/11/07 01:16:46;;;;;;;2.23;1.70;;;12.60;99.90;;;;;;4962658;28;20466;-73
2022/11/07 01:19:12;;;;;;;1.90;1.70;;;12.60;99.90;;;;;;4962536;28;20484;-73
2022/11/07 01:21:40;;;;;;;2.90;1.77;;;12.60;99.90;;;;;;4962521;28;20858;-73
2022/11/07 01:24:09;;;;;;;2.93;1.67;;;12.60;99.90;;;;;;4978539;28;20400;-73
2022/11/07 01:26:47;;;;;;;2.13;1.47;;;12.60;99.90;;;;;;4962773;28;20417;-73
2022/11/07 01:29:17;;;;;;;2.40;1.40;;;12.60;99.90;;;;;;4995532;28;20441;-73
2022/11/07 01:31:44;;;;;;;2.13;1.83;;;12.60;99.90;;;;;;4978591;28;20432;-73
2022/11/07 01:34:10;;;;;;;2.43;1.70;;;12.60;99.90;;;;;;4978376;28;20409;-74
2022/11/07 01:36:36;;;;;;;2.80;1.40;;;12.60;99.90;;;;;;4946412;28;20443;-74
2022/11/07 01:39:04;;;;;;;2.00;1.40;;;12.60;99.90;;;;;;4978300;28;20438;-74
2022/11/07 01:41:35;;;;;;;4.40;1.70;;;12.50;99.90;;;;;;4962098;28;20461;-74
2022/11/07 01:44:08;;;;;;;2.00;1.60;;;12.50;99.90;;;;;;4978437;28;20491;-73
2022/11/07 01:46:44;;;;;;;2.67;1.73;;;12.50;99.90;;;;;;4978096;28;20452;-73
2022/11/07 01:49:20;;;;;;;2.63;1.50;;;12.50;99.90;;;;;;4977607;28;20457;-73
2022/11/07 01:52:07;;;;;;;1.80;1.30;;;12.50;99.90;;;;;;4977886;28;20500;-73
2022/11/07 01:54:44;;;;;;;3.03;1.47;;;12.50;99.90;;;;;;4993388;28;20503;-73
2022/11/07 01:57:20;;;;;;;2.20;1.30;;;12.50;99.90;;;;;;4977887;28;20421;-73
2022/11/07 01:59:54;;;;;;;2.20;1.53;;;12.50;99.90;;;;;;4995125;28;20447;-73
2022/11/07 02:02:26;;;;;;;2.30;1.40;;;12.50;99.90;;;;;;4977652;28;20464;-73
2022/11/07 02:04:56;;;;;;;3.07;1.63;;;12.50;99.90;;;;;;4995201;28;20765;-73
2022/11/07 02:07:25;;;;;;;3.43;1.40;;;12.50;99.90;;;;;;4977823;28;20410;-74
2022/11/07 02:09:55;;;;;;;2.60;1.80;;;12.50;99.90;;;;;;4961327;28;20471;-74
2022/11/07 02:12:23;;;;;;;3.80;1.80;;;12.50;99.90;;;;;;4977593;28;20402;-74
2022/11/07 02:14:53;;;;;;;3.30;1.50;;;12.50;99.90;;;;;;4977682;28;20429;-73
2022/11/07 02:17:20;;;;;;;3.90;2.30;;;12.50;99.90;;;;;;4961598;28;20973;-73
2022/11/07 02:19:52;;;;;;;2.73;1.37;;;12.50;99.90;;;;;;4977532;28;20532;-73
2022/11/07 02:22:33;;;;;;;4.13;1.60;;;12.50;99.90;;;;;;4961344;28;20473;-73
2022/11/07 02:25:02;;;;;;;2.50;1.43;;;12.50;99.90;;;;;;4994687;28;20480;-74
2022/11/07 02:27:33;;;;;;;2.20;1.40;;;12.50;99.90;;;;;;4961455;28;20912;-74
2022/11/07 02:30:13;;;;;;;1.83;1.50;;;12.50;99.90;;;;;;4977207;28;20452;-74
2022/11/07 02:32:41;;;;;;;1.97;1.43;;;12.50;99.90;;;;;;4977362;28;20423;-74
2022/11/07 02:35:29;;;;;;;3.20;2.13;;;12.50;99.90;;;;;;4994630;28;20919;-74
2022/11/07 02:37:55;;;;;;;2.67;1.90;;;12.50;99.90;;;;;;4961294;28;20428;-73
2022/11/07 02:40:25;;;;;;;6.20;2.13;;;12.50;99.90;;;;;;4994390;28;20830;-73
2022/11/07 02:42:51;;;;;;;2.80;1.47;;;12.50;99.90;;;;;;4977287;28;20568;-73
2022/11/07 02:45:30;;;;;;;2.93;1.47;;;12.50;99.90;;;;;;4994453;28;20818;-73
2022/11/07 02:47:56;;;;;;;3.33;1.67;;;12.50;99.90;;;;;;4976885;28;20470;-73
2022/11/07 02:50:24;;;;;;;1.70;1.23;;;12.50;99.90;;;;;;4944863;28;20454;-73
2022/11/07 02:52:52;;;;;;;3.27;1.53;;;12.50;99.90;;;;;;4960784;28;20970;-73
2022/11/07 02:55:21;;;;;;;2.30;1.40;;;12.50;99.90;;;;;;4993992;28;20535;-73
2022/11/07 02:57:47;;;;;;;3.63;1.40;;;12.50;99.90;;;;;;4976793;28;20431;-73
2022/11/07 03:00:14;;;;;;;4.27;1.97;;;12.50;99.90;;;;;;4960471;28;20439;-73
2022/11/07 03:02:47;;;;;;;1.90;1.30;;;12.50;99.90;;;;;;4960420;28;20487;-73
2022/11/07 03:05:15;;;;;;;2.70;2.07;;;12.50;99.90;;;;;;4976727;28;20406;-73
2022/11/07 03:07:43;;;;;;;2.00;1.30;;;12.40;99.90;;;;;;4976851;28;20940;-73
2022/11/07 03:10:13;;;;;;;3.83;1.53;;;12.50;99.90;;;;;;4960991;28;20441;-73
2022/11/07 03:12:39;;;;;;;2.67;1.80;;;12.50;99.90;;;;;;4976722;28;20410;-73
2022/11/07 03:15:07;;;;;;;2.43;1.43;;;12.50;99.90;;;;;;4993930;28;20402;-73
2022/11/07 03:17:36;;;;;;;3.40;1.90;;;12.50;99.90;;;;;;4976485;28;20400;-73
2022/11/07 03:20:02;;;;;;;1.70;1.60;;;12.50;99.90;;;;;;4976499;28;20915;-73
2022/11/07 03:22:28;;;;;;;2.77;1.60;;;12.40;99.90;;;;;;4976413;28;20514;-73
2022/11/07 03:24:57;;;;;;;3.67;1.33;;;12.50;99.90;;;;;;4993848;28;20406;-73
2022/11/07 03:27:23;;;;;;;5.00;1.77;;;12.40;99.90;;;;;;4976526;28;20766;-73
2022/11/07 03:29:51;;;;;;;2.03;1.53;;;12.50;99.90;;;;;;4993455;28;20448;-73
2022/11/07 03:32:17;;;;;;;3.77;1.87;;;12.40;99.90;;;;;;4993775;28;20402;-73
2022/11/07 03:34:48;;;;;;;4.87;1.30;;;12.40;99.90;;;;;;4994103;28;20403;-73
2022/11/07 03:37:16;;;;;;;2.93;1.53;;;12.40;99.90;;;;;;4960479;28;20797;-73
2022/11/07 03:39:45;;;;;;;2.70;1.40;;;12.50;99.90;;;;;;4976676;28;20491;-73
2022/11/07 03:42:11;;;;;;;4.00;1.83;;;12.40;99.90;;;;;;4976127;28;20500;-73
2022/11/07 03:44:42;;;;;;;1.80;1.17;;;12.40;99.90;;;;;;4977816;28;20975;-73
2022/11/07 03:47:10;;;;;;;3.53;1.50;;;12.40;99.90;;;;;;4976253;28;20481;-73
2022/11/07 03:49:39;;;;;;;2.07;1.03;;;12.40;99.90;;;;;;4993686;28;20475;-73
2022/11/07 03:52:07;;;;;;;2.07;1.30;;;12.40;99.90;;;;;;4993690;28;20408;-73
2022/11/07 03:54:35;;;;;;;4.90;1.50;;;12.40;99.90;;;;;;4976052;28;20452;-73
2022/11/07 03:57:04;;;;;;;1.60;1.20;;;12.40;99.90;;;;;;4960043;28;20429;-73
2022/11/07 03:59:32;;;;;;;2.80;1.33;;;12.40;99.90;;;;;;4959953;28;20451;-73
2022/11/07 04:02:00;;;;;;;1.90;1.50;;;12.40;99.90;;;;;;4959895;28;20234;-73
2022/11/07 04:04:29;;;;;;;2.37;1.40;;;12.40;99.90;;;;;;4993504;28;20397;-73
2022/11/07 04:06:55;;;;;;;1.97;1.13;;;12.40;99.90;;;;;;4976264;28;20918;-73
2022/11/07 04:09:21;;;;;;;3.33;1.10;;;12.40;99.90;;;;;;4993281;28;20481;-73
2022/11/07 04:17:23;;;;;;;2.30;1.20;;;12.40;99.90;;;;;;4993445;28;21067;-73
2022/11/07 04:19:53;;;;;;;3.23;1.60;;;12.40;99.90;;;;;;4993252;28;20447;-73
2022/11/07 04:22:19;;;;;;;3.27;1.77;;;12.40;99.90;;;;;;4975717;28;20504;-73
2022/11/07 04:24:45;;;;;;;3.27;1.63;;;12.40;99.90;;;;;;4993317;28;20438;-73
2022/11/07 04:30:22;;;;;;;2.30;1.43;;;12.40;99.90;;;;;;4978092;28;20970;-73
2022/11/07 04:32:51;;;;;;;2.07;1.33;;;12.40;99.90;;;;;;4996882;28;20433;-73
2022/11/07 04:35:22;;;;;;;2.83;1.37;;;12.40;99.90;;;;;;4979758;28;20508;-73
2022/11/07 04:37:52;;;;;;;2.43;1.40;;;12.40;99.90;;;;;;4979570;28;20427;-74
2022/11/07 04:40:20;;;;;;;3.70;1.60;;;12.40;99.90;;;;;;4947367;28;20794;-74
2022/11/07 04:42:48;;;;;;;3.97;1.50;;;12.40;99.90;;;;;;4975661;28;20462;-73
2022/11/07 04:45:17;;;;;;;2.50;1.40;;;12.40;99.90;;;;;;4975820;28;20435;-75
2022/11/07 04:47:44;;;;;;;2.93;2.03;;;12.40;99.90;;;;;;4964741;28;20452;-73
2022/11/07 04:50:15;;;;;;;2.47;1.60;;;12.30;99.90;;;;;;4956014;28;20436;-75
2022/11/07 04:52:42;;;;;;;2.10;1.87;;;12.30;99.90;;;;;;4963113;28;20412;-75
2022/11/07 04:55:18;;;;;;;2.90;1.63;;;12.30;99.90;;;;;;4996075;28;20812;-74
2022/11/07 04:57:44;;;;;;;2.03;1.50;;;12.30;99.90;;;;;;4996254;28;20404;-74
2022/11/07 05:00:10;;;;;;;2.47;1.70;;;12.30;99.90;;;;;;4978933;28;20487;-74
2022/11/07 05:02:36;;;;;;;2.00;1.50;;;12.30;99.90;;;;;;4959273;28;20485;-74
2022/11/07 05:05:05;;;;;;;1.37;1.20;;;12.30;99.90;;;;;;4927628;28;20444;-72
2022/11/07 05:07:33;;;;;;;2.00;1.33;;;12.30;99.90;;;;;;4976793;28;20434;-74
2022/11/07 05:09:59;;;;;;;7.00;2.03;;;12.30;99.90;;;;;;4975563;28;20478;-74
2022/11/07 05:12:26;;;;;;;2.70;1.40;;;12.30;99.90;;;;;;4958930;28;21039;-76
2022/11/07 05:14:52;;;;;;;3.20;1.70;;;12.30;99.90;;;;;;4975494;28;20501;-76
2022/11/07 05:17:21;;;;;;;3.27;1.40;;;12.30;99.90;;;;;;4970098;28;20465;-75
2022/11/07 05:19:47;;;;;;;3.03;1.37;;;12.30;99.90;;;;;;4994686;28;20437;-75
2022/11/07 05:25:13;;;;;;;3.90;1.50;;;12.30;99.90;;;;;;4954765;28;20423;-77
2022/11/07 05:27:53;;;;;;;1.90;1.43;;;12.30;99.90;;;;;;4972726;28;20430;-77
2022/11/07 05:30:19;;;;;;;3.47;1.60;;;12.30;99.90;;;;;;4941193;28;20857;-77
2022/11/07 05:32:47;;;;;;;3.03;1.50;;;12.30;99.90;;;;;;4976677;28;20461;-77
2022/11/07 05:35:13;;;;;;;1.83;1.40;;;12.30;99.90;;;;;;4975353;28;20480;-77
2022/11/07 05:37:44;;;;;;;3.83;1.80;;;12.30;99.90;;;;;;4958879;28;20901;-77
2022/11/07 05:40:13;;;;;;;2.50;1.70;;;12.30;99.90;;;;;;4962189;28;20959;-77
2022/11/07 05:42:39;;;;;;;2.13;1.40;;;12.30;99.90;;;;;;4979681;28;20486;-77
2022/11/07 05:45:06;;;;;;;2.13;1.60;;;12.30;99.90;;;;;;4975230;28;20943;-77
2022/11/07 05:47:35;;;;;;;5.53;1.47;;;12.30;99.90;;;;;;4960483;28;20466;-77
2022/11/07 05:50:01;;;;;;;4.57;1.40;;;12.30;99.90;;;;;;4959916;28;20459;-77
2022/11/07 05:52:31;;;;;;;2.67;1.33;;;12.30;99.90;;;;;;4980350;28;20425;-77
2022/11/07 05:54:57;;;;;;;1.70;1.40;;;12.30;99.90;;;;;;4957895;28;20445;-77
2022/11/07 05:57:27;;;;;;;3.97;1.60;;;12.30;99.90;;;;;;4967947;28;20449;-77
2022/11/07 05:59:55;;;;;;;3.97;1.73;;;12.30;99.90;;;;;;4940432;28;20460;-77
2022/11/07 06:02:24;;;;;;;4.83;1.57;;;12.30;99.90;;;;;;4937554;29;20830;-76
2022/11/07 06:04:50;;;;;;;4.80;2.00;;;12.30;99.90;;;;;;4955081;29;20424;-77
2022/11/07 06:07:18;;;;;;;5.07;1.90;;;12.30;99.90;;;;;;4960170;28;20992;-76
2022/11/07 06:09:47;;;;;;;2.43;1.70;;;12.30;99.90;;;;;;4972654;28;20450;-78
2022/11/07 06:12:13;;;;;;;5.20;1.67;;;12.30;99.90;;;;;;4967519;28;20424;-78
2022/11/07 06:14:44;;;;;;;3.23;1.70;;;12.30;99.90;;;;;;4975887;28;21234;-78
2022/11/07 06:17:12;;;;;;;3.30;1.93;;;12.30;99.90;;;;;;4991256;28;20446;-78
2022/11/07 06:19:40;;;;;;;2.63;1.30;;;12.30;99.90;;;;;;4967193;28;20513;-73
2022/11/07 06:22:06;;;;;;;3.07;1.70;;;12.30;99.90;;;;;;4964775;28;20512;-72
2022/11/07 06:24:32;;;;;;;6.67;1.70;;;12.30;99.90;;;;;;4954684;28;20999;-75
2022/11/07 06:26:59;;;;;;;2.40;1.70;;;12.30;99.90;;;;;;4958698;28;20920;-75
2022/11/07 06:29:25;;;;;;;4.60;1.70;;;12.30;99.90;;;;;;4971082;28;20440;-76
2022/11/07 06:31:51;;;;;;;2.73;1.63;;;12.30;99.90;;;;;;4980097;28;20465;-76
2022/11/07 06:34:19;;;;;;;5.50;1.43;;;12.30;99.90;;;;;;4974695;28;20428;-76
2022/11/07 06:36:50;;;;;;;3.77;1.80;;;12.20;99.90;;;;;;4993360;28;20436;-76
2022/11/07 06:39:17;;;;;;;5.00;1.70;;;12.20;99.90;;;;;;4989527;28;20450;-75
2022/11/07 06:41:48;;;;;;;4.10;1.93;;;12.20;99.90;;;;;;4962628;28;20490;-76
2022/11/07 06:44:19;;;;;;;3.80;1.70;;;12.20;99.90;;;;;;4981207;28;20423;-75
2022/11/07 06:46:45;;;;;;;5.10;2.00;;;12.20;99.90;;;;;;4940400;28;20742;-75
2022/11/07 06:49:13;;;;;;;3.00;1.70;;;12.20;99.90;;;;;;4950798;28;20451;-75
2022/11/07 06:51:43;;;;;;;4.10;1.60;;;12.20;99.90;;;;;;4969667;28;20427;-75
2022/11/07 06:54:10;;;;;;;4.87;2.07;;;12.30;99.90;;;;;;4965505;28;20492;-75
2022/11/07 06:56:36;;;;;;;3.57;2.13;;;12.20;99.90;;;;;;4951670;28;20449;-75
2022/11/07 06:59:02;;;;;;;4.03;2.03;;;12.30;99.90;;;;;;4968093;28;20446;-75
2022/11/07 07:01:29;;;;;;;4.60;2.10;;;12.30;99.90;;;;;;4949849;28;20471;-75
2022/11/07 07:03:55;;;;;;;4.37;2.13;;;12.30;99.90;;;;;;4956865;28;20433;-75
2022/11/07 07:06:21;;;;;;;3.03;1.73;;;12.20;99.90;;;;;;4992391;28;20791;-75
2022/11/07 07:08:47;;;;;;;6.03;2.30;;;12.20;99.90;;;;;;4969462;28;20477;-75
2022/11/07 07:11:15;;;;;;;3.40;1.87;;;12.20;99.90;;;;;;4975256;28;20479;-75
2022/11/07 07:13:41;;;;;;;4.03;1.73;;;12.30;99.90;;;;;;4946312;28;20825;-75
2022/11/07 07:16:14;;;;;;;5.07;1.90;;;12.30;99.90;;;;;;4982114;28;20466;-75
2022/11/07 07:18:44;;;;;;;4.60;1.90;;;12.30;99.90;;;;;;5056210;22;20490;-74
2022/11/07 07:21:15;;;;;;;4.50;2.17;;;12.30;99.90;;;;;;5006287;28;20559;-75
2022/11/07 07:23:44;;;;;;;5.10;1.80;;;12.30;99.90;;;;;;4999821;28;20414;-75
2022/11/07 07:26:17;;;;;;;3.23;1.60;;;12.30;99.90;;;;;;4995763;28;20424;-75
2022/11/07 07:28:47;;;;;;;8.73;2.13;;;12.30;99.90;;;;;;4976356;28;20978;-75
2022/11/07 07:31:13;;;;;;;3.30;1.70;;;12.30;99.90;;;;;;5004563;28;20448;-75
2022/11/07 07:33:42;;;;;;;3.40;1.30;;;12.30;99.90;;;;;;4995302;28;20915;-75
2022/11/07 07:36:11;;;;;;;4.63;1.83;;;12.30;99.90;;;;;;4979663;28;20420;-75
2022/11/07 07:38:37;;;;;;;4.13;2.47;;;12.30;99.90;;;;;;4979327;28;20453;-75
2022/11/07 07:41:06;;;;;;;4.50;2.07;;;12.30;99.90;;;;;;4995526;28;20499;-75
2022/11/07 07:43:35;;;;;;;3.80;1.50;;;12.30;99.90;;;;;;4998522;28;20453;-75
2022/11/07 07:46:05;;;;;;;4.90;2.07;;;12.40;99.90;;;;;;4992232;28;20411;-75
2022/11/07 07:48:34;;;;;;;4.03;1.90;;;12.40;99.90;;;;;;4992049;28;20492;-75
2022/11/07 07:51:05;;;;;;;5.03;2.13;;;12.40;99.90;;;;;;4992304;28;20487;-75
2022/11/07 07:53:31;;;;;;;4.50;2.10;;;12.40;99.90;;;;;;5004440;28;20485;-75
2022/11/07 07:56:01;;;;;;;4.33;1.97;;;12.40;99.90;;;;;;5012764;28;20412;-75
2022/11/07 07:58:32;;;;;;;3.03;1.80;;;12.40;99.90;;;;;;4992863;28;20441;-74
2022/11/07 08:00:58;;;;;;;5.23;1.87;;;12.40;99.90;;;;;;5011395;28;20467;-75
2022/11/07 08:03:27;;;;;;;5.00;2.17;;;12.40;99.90;;;;;;4997585;28;20405;-75
2022/11/07 08:06:00;;;;;;;3.63;1.83;;;12.40;99.90;;;;;;5016601;28;20420;-75
2022/11/07 08:08:28;;;;;;;4.03;1.60;;;12.40;99.90;;;;;;4979659;28;20468;-75
2022/11/07 08:11:00;;;;;;;4.47;2.07;;;12.50;99.90;;;;;;4996933;28;20723;-75
2022/11/07 08:13:29;;;;;;;4.40;2.20;;;12.40;99.90;;;;;;5008163;28;20487;-76
2022/11/07 08:16:03;;;;;;;3.93;1.80;;;12.40;99.90;;;;;;4982506;28;20460;-76
2022/11/07 08:18:32;;;;;;;8.80;2.30;;;12.50;99.90;;;;;;5000766;28;20469;-76
2022/11/07 08:20:58;;;;;;;4.80;1.93;;;12.50;99.90;;;;;;5014102;28;20477;-75
2022/11/07 08:23:30;;;;;;;5.50;2.10;;;12.40;99.90;;;;;;5013248;28;20416;-75
2022/11/07 08:25:57;;;;;;;9.10;2.50;;;12.50;99.90;;;;;;4997536;28;20551;-75
2022/11/07 08:28:32;;;;;;;4.27;1.93;;;12.50;99.90;;;;;;4981559;28;20989;-75
2022/11/07 08:31:04;;;;;;;3.80;2.03;;;12.50;99.90;;;;;;4978998;28;20423;-75
2022/11/07 08:33:37;;;;;;;10.10;2.60;;;12.50;99.90;;;;;;5006806;28;20465;-75
2022/11/07 08:36:06;;;;;;;7.97;2.07;;;12.50;99.90;;;;;;4979177;28;20987;-75
2022/11/07 08:38:34;;;;;;;7.77;2.40;;;12.50;99.90;;;;;;4997446;28;20790;-75
2022/11/07 08:41:01;;;;;;;4.63;2.20;;;12.50;99.90;;;;;;4996490;28;20473;-75
2022/11/07 08:43:28;;;;;;;3.40;2.27;;;12.60;99.90;;;;;;4997894;28;20480;-75
2022/11/07 08:45:54;;;;;;;5.43;2.20;;;12.50;99.90;;;;;;4961764;28;20775;-75
2022/11/07 08:48:23;;;;;;;5.10;2.77;;;12.50;99.90;;;;;;4979905;28;20491;-75
2022/11/07 08:50:56;;;;;;;6.93;1.83;;;12.50;99.90;;;;;;4997127;28;20421;-75
2022/11/07 08:53:26;;;;;;;4.87;2.00;;;12.60;99.90;;;;;;4987947;28;20435;-75
2022/11/07 08:56:08;;;;;;;5.70;2.07;;;12.60;99.90;;;;;;4994510;28;20903;-75
2022/11/07 08:58:35;;;;;;;3.30;2.20;;;12.60;99.90;;;;;;4996226;28;20458;-75
2022/11/07 09:01:09;;;;;;;3.90;1.47;;;12.50;99.90;;;;;;5014067;28;20451;-75
2022/11/07 09:03:38;;;;;;;5.90;2.33;;;12.60;99.90;;;;;;4977320;28;20429;-75
2022/11/07 09:06:07;;;;;;;5.53;1.73;;;12.60;99.90;;;;;;4996487;28;20428;-75
2022/11/07 09:08:33;;;;;;;8.97;2.50;;;12.60;99.90;;;;;;4977226;28;20492;-75
2022/11/07 09:11:01;;;;;;;5.97;2.63;;;12.60;99.90;;;;;;4997485;28;20442;-75
2022/11/07 09:13:29;;;;;;;3.47;2.23;;;12.60;99.90;;;;;;4987484;28;20595;-75
2022/11/07 09:15:59;;;;;;;4.47;2.20;;;12.60;99.90;;;;;;4988705;28;20438;-75
2022/11/07 09:18:26;;;;;;;6.37;2.10;;;12.60;99.90;;;;;;4984808;28;20468;-75
2022/11/07 09:20:56;;;;;;;5.30;1.83;;;12.60;99.90;;;;;;4990228;28;20827;-75
2022/11/07 09:23:22;;;;;;;7.70;2.13;;;12.60;99.90;;;;;;4987298;28;20426;-75
2022/11/07 09:25:48;;;;;;;5.33;1.83;;;12.60;99.90;;;;;;5008096;28;20428;-73
2022/11/07 09:28:14;;;;;;;5.27;1.63;;;12.60;99.90;;;;;;4995108;28;20509;-75
2022/11/07 09:30:43;;;;;;;5.13;2.07;;;12.70;99.90;;;;;;5011933;28;20435;-75
2022/11/07 09:33:09;;;;;;;6.13;2.07;;;12.70;99.90;;;;;;4988389;28;20438;-75
2022/11/07 09:35:40;;;;;;;4.17;1.50;;;12.70;99.90;;;;;;4977214;28;20409;-75
2022/11/07 09:38:06;;;;;;;10.70;2.27;;;12.70;99.90;;;;;;5001197;28;20418;-75
2022/11/07 09:40:46;;;;;;;11.10;2.87;;;12.70;99.90;;;;;;5012295;28;20390;-75
2022/11/07 09:43:29;;;;;;;6.50;1.90;;;12.70;99.90;;;;;;4996293;28;20451;-75
2022/11/07 09:46:08;;;;;;;4.83;2.17;;;12.70;99.90;;;;;;4980087;28;20474;-75
2022/11/07 09:48:45;;;;;;;4.03;1.77;;;12.70;99.90;;;;;;4966194;28;20472;-75
2022/11/07 09:51:17;;;;;;;4.97;2.40;;;12.70;99.90;;;;;;4995981;28;20405;-76
2022/11/07 09:53:50;;;;;;;11.40;2.10;;;12.70;99.90;;;;;;5008751;28;20921;-75
2022/11/07 09:56:21;;;;;;;4.40;2.23;;;12.70;99.90;;;;;;4992995;28;20501;-75
2022/11/07 09:58:53;;;;;;;7.50;1.93;;;12.80;99.90;;;;;;4990558;28;20878;-75
2022/11/07 10:01:23;;;;;;;5.70;1.63;;;12.80;99.90;;;;;;4963497;28;20465;-76
2022/11/07 10:03:51;;;;;;;5.07;2.20;;;12.70;99.90;;;;;;5013350;28;20460;-75
2022/11/07 10:06:23;;;;;;;6.03;2.20;;;12.80;99.90;;;;;;5012835;28;20811;-75
2022/11/07 10:08:54;;;;;;;5.27;2.00;;;12.80;99.90;;;;;;4995724;28;20430;-75
2022/11/07 10:11:34;;;;;;;7.20;3.27;;;12.80;99.90;;;;;;4964351;28;20459;-75
2022/11/07 10:14:09;;;;;;;3.43;1.90;;;12.80;99.90;;;;;;4995540;28;20519;-75
2022/11/07 10:17:07;;;;;;;8.00;1.60;;;12.80;99.90;;;;;;4992252;28;20894;-75
2022/11/07 10:20:04;;;;;;;5.60;2.20;;;12.80;99.90;;;;;;4962731;28;20470;-75
2022/11/07 10:22:34;;;;;;;6.10;2.20;;;12.80;99.90;;;;;;4975050;28;20517;-75
2022/11/07 10:25:09;;;;;;;3.93;2.30;;;12.80;99.90;;;;;;4996193;28;20416;-76
2022/11/07 10:27:41;;;;;;;5.57;1.93;;;12.80;99.90;;;;;;5012293;28;20444;-76
2022/11/07 10:30:23;;;;;;;6.73;2.30;;;12.80;99.90;;;;;;4994911;28;20474;-76
2022/11/07 10:33:10;;;;;;;5.33;1.90;;;12.80;99.90;;;;;;5011412;28;20438;-76
2022/11/07 10:35:43;;;;;;;4.93;1.90;;;12.80;99.90;;;;;;4979370;28;20476;-75
2022/11/07 10:38:26;;;;;;;6.50;2.33;;;12.80;99.90;;;;;;5012821;28;20470;-75
2022/11/07 10:40:52;;;;;;;8.43;1.90;;;12.80;99.90;;;;;;4978844;28;20552;-76
2022/11/07 10:43:24;;;;;;;3.40;1.60;;;12.80;99.90;;;;;;4993122;28;20483;-76
2022/11/07 10:45:51;;;;;;;5.37;1.90;;;12.80;99.90;;;;;;4987100;28;20948;-76
2022/11/07 10:48:19;;;;;;;4.93;2.30;;;12.80;99.90;;;;;;4995547;28;20439;-76
2022/11/07 10:50:53;;;;;;;5.87;1.93;;;12.80;99.90;;;;;;4978897;28;20842;-75
2022/11/07 10:53:24;;;;;;;4.17;1.50;;;12.80;99.90;;;;;;4994996;28;20459;-76
2022/11/07 10:55:54;;;;;;;5.53;2.10;;;12.80;99.90;;;;;;4979217;28;20484;-76
2022/11/07 10:58:34;;;;;;;4.00;2.17;;;12.90;99.90;;;;;;4978396;28;20444;-76
2022/11/07 11:01:10;;;;;;;4.57;1.70;;;12.90;99.90;;;;;;4994912;28;20475;-76
2022/11/07 11:03:39;;;;;;;7.37;1.90;;;12.90;99.90;;;;;;5010985;28;20495;-75
2022/11/07 11:06:18;;;;;;;6.50;2.10;;;12.90;99.90;;;;;;4994914;28;20996;-76
2022/11/07 11:08:45;;;;;;;7.03;2.20;;;12.90;99.90;;;;;;5012641;28;20492;-76
2022/11/07 11:11:20;;;;;;;3.30;1.57;;;12.90;99.90;;;;;;4994971;28;20427;-76
2022/11/07 11:14:12;;;;;;;7.20;2.60;;;12.90;99.90;;;;;;5012645;28;20450;-75
2022/11/07 11:16:40;;;;;;;6.60;2.30;;;12.90;99.90;;;;;;4978621;28;20490;-75
2022/11/07 11:19:28;;;;;;;3.87;1.93;;;12.90;99.90;;;;;;4994338;28;20460;-76
2022/11/07 11:21:59;;;;;;;6.77;3.53;;;12.90;99.90;;;;;;4994592;28;20483;-75
2022/11/07 11:24:36;;;;;;;6.50;2.27;;;12.90;99.90;;;;;;4979123;28;20709;-75
2022/11/07 11:27:28;;;;;;;4.37;1.90;;;12.90;99.90;;;;;;5010594;28;20409;-75
2022/11/07 11:30:07;;;;;;;4.10;1.97;;;13.00;99.90;;;;;;4981976;28;20968;-77
2022/11/07 11:32:56;;;;;;;3.23;2.67;;;12.90;99.90;;;;;;4975730;28;20416;-75
2022/11/07 11:35:34;;;;;;;5.73;2.20;;;13.00;99.90;;;;;;4978664;28;20451;-76
2022/11/07 11:38:13;;;;;;;5.50;2.40;;;13.00;99.90;;;;;;4996095;28;20786;-76
2022/11/07 11:40:42;;;;;;;9.17;2.30;;;13.00;99.90;;;;;;4982623;28;20457;-76
2022/11/07 11:43:30;;;;;;;7.10;2.00;;;13.00;99.90;;;;;;4967436;28;20460;-76
2022/11/07 11:46:18;;;;;;;7.80;2.70;;;13.00;99.90;;;;;;4984385;28;20427;-76
2022/11/07 11:49:03;;;;;;;5.70;2.57;;;13.00;99.90;;;;;;4973971;28;20457;-75
2022/11/07 11:51:41;;;;;;;7.80;2.77;;;13.00;99.90;;;;;;4966122;28;20498;-76
2022/11/07 11:54:13;;;;;;;5.23;2.53;;;13.00;99.90;;;;;;4979765;28;20786;-76
2022/11/07 11:56:57;;;;;;;5.33;2.37;;;13.00;99.90;;;;;;4995389;28;20782;-76
2022/11/07 11:59:31;;;;;;;11.73;2.53;;;13.00;99.90;;;;;;5010685;28;21007;-75
2022/11/07 12:02:09;;;;;;;9.00;2.70;;;13.00;99.90;;;;;;4982247;28;20561;-76
2022/11/07 12:04:46;;;;;;;9.13;3.10;;;13.10;99.90;;;;;;5012194;28;20512;-76
2022/11/07 12:07:14;;;;;;;5.33;2.90;;;13.10;99.90;;;;;;4963188;28;20417;-76
2022/11/07 12:09:56;;;;;;;13.30;2.90;;;13.10;99.90;;;;;;4978879;28;20449;-76
2022/11/07 12:12:44;;;;;;;10.40;3.13;;;13.10;99.90;;;;;;4995670;28;20449;-76
2022/11/07 12:15:22;;;;;;;10.13;2.50;;;13.10;99.90;;;;;;4986620;28;20469;-76
2022/11/07 12:17:48;;;;;;;5.50;2.20;;;13.10;99.90;;;;;;4980345;28;20461;-77
2022/11/07 12:20:36;;;;;;;3.77;1.97;;;13.10;99.90;;;;;;4971661;28;20533;-76
2022/11/07 12:23:15;;;;;;;7.17;2.30;;;13.10;99.90;;;;;;4993877;28;20522;-76
2022/11/07 12:26:20;;;;;;;7.00;2.23;;;13.10;99.90;;;;;;5006957;28;20482;-76
2022/11/07 12:29:03;;;;;;;6.30;2.17;;;13.10;99.90;;;;;;4989767;28;20450;-76
2022/11/07 12:31:53;;;;;;;6.90;2.20;;;13.20;99.90;;;;;;4978333;28;20472;-76
2022/11/07 12:34:31;;;;;;;5.73;1.97;;;13.20;99.90;;;;;;5007694;28;20427;-76
2022/11/07 12:37:48;;;;;;;6.00;2.37;;;13.20;99.90;;;;;;5015318;28;20452;-75
2022/11/07 12:40:26;;;;;;;7.23;2.17;;;13.20;99.90;;;;;;4996049;28;20453;-76
2022/11/07 12:43:18;;;;;;;4.97;2.20;;;13.20;99.90;;;;;;5012383;28;21014;-75
2022/11/07 12:46:27;;;;;;;7.87;1.93;;;13.20;99.90;;;;;;5015218;28;20889;-75
2022/11/07 12:49:15;;;;;;;3.30;2.00;;;13.20;99.90;;;;;;4996729;28;20568;-75
2022/11/07 12:51:59;;;;;;;4.10;1.90;;;13.20;99.90;;;;;;4997191;28;20468;-76
2022/11/07 12:54:52;;;;;;;4.43;2.10;;;13.30;99.90;;;;;;4997027;28;20468;-76
2022/11/07 12:57:22;;;;;;;6.23;1.83;;;13.30;99.90;;;;;;5014843;28;20749;-76
2022/11/07 13:00:18;;;;;;;4.73;2.00;;;13.30;99.90;;;;;;5000772;28;20542;-75
2022/11/07 13:03:20;;;;;;;6.93;2.20;;;13.30;99.90;;;;;;4983607;28;20475;-76
2022/11/07 13:06:09;;;;;;;5.97;1.87;;;13.30;99.90;;;;;;4981465;28;20486;-75
2022/11/07 13:08:35;;;;;;;3.67;2.20;;;13.30;99.90;;;;;;4994424;28;20977;-76
2022/11/07 13:11:16;;;;;;;6.13;1.70;;;13.30;99.90;;;;;;4990796;28;20421;-76
2022/11/07 13:14:06;;;;;;;4.43;2.00;;;13.40;99.90;;;;;;4988450;28;20453;-76
2022/11/07 13:16:36;;;;;;;3.73;1.83;;;13.40;99.90;;;;;;4986639;28;20439;-75
2022/11/07 13:19:30;;;;;;;4.30;2.00;;;13.40;99.90;;;;;;4993109;28;20451;-76
2022/11/07 13:22:01;;;;;;;8.30;1.90;;;13.40;99.90;;;;;;4994364;28;20832;-76
2022/11/07 13:24:28;;;;;;;7.40;2.33;;;13.40;99.90;;;;;;4978776;28;20514;-75